Time;durP1;ratioP1;P1;durP2;ratioP2;P2;SDS_P1;SDS_P2;PMS_P1;PMS_P2;Temp;Humidity;BMP_temperature;BMP_pressure;BME280_temperature;BME280_humidity;BME280_pressure;Samples;Min_cycle;Max_cycle;Signal;HPM_P1;HPM_P2
2022/10/18 00:02:14;;;;;;;42.60;36.22;;;;;;;;;;5072986;28;20031;-60
2022/10/18 00:04:40;;;;;;;43.65;36.78;;;;;;;;;;5055048;28;20021;-55
2022/10/18 00:07:06;;;;;;;44.60;35.78;;;;;;;;;;5073046;28;20020;-56
2022/10/18 00:09:32;;;;;;;39.05;35.17;;;;;;;;;;5073167;28;20032;-58
2022/10/18 00:11:58;;;;;;;38.15;34.05;;;;;;;;;;5072867;28;20051;-57
2022/10/18 00:14:24;;;;;;;39.13;34.67;;;;;;;;;;5054961;28;20060;-59
2022/10/18 00:16:50;;;;;;;38.53;34.40;;;;;;;;;;5072802;28;20362;-60
2022/10/18 00:19:16;;;;;;;41.65;37.08;;;;;;;;;;5072844;28;20036;-58
2022/10/18 00:21:42;;;;;;;38.70;34.50;;;;;;;;;;5072796;28;20025;-60
2022/10/18 00:24:08;;;;;;;39.55;34.47;;;;;;;;;;5072603;28;20092;-59
2022/10/18 00:26:34;;;;;;;39.38;34.97;;;;;;;;;;5054749;28;20568;-60
2022/10/18 00:29:02;;;;;;;38.55;34.38;;;;;;;;;;5054780;28;20064;-58
2022/10/18 00:31:32;;;;;;;37.10;32.63;;;;;;;;;;5072644;28;20028;-58
2022/10/18 00:33:59;;;;;;;35.08;31.27;;;;;;;;;;5072271;28;20035;-60
2022/10/18 00:36:26;;;;;;;38.22;33.28;;;;;;;;;;5054663;28;20456;-60
2022/10/18 00:38:53;;;;;;;40.28;34.17;;;;;;;;;;5054525;28;20060;-58
2022/10/18 00:41:23;;;;;;;37.55;32.35;;;;;;;;;;5072579;28;20024;-55
2022/10/18 00:44:09;;;;;;;39.03;32.42;;;;;;;;;;5054453;28;20467;-59
2022/10/18 00:46:37;;;;;;;37.10;32.97;;;;;;;;;;5021808;28;20094;-56
2022/10/18 00:49:09;;;;;;;38.50;32.47;;;;;;;;;;5072197;28;20174;-60
2022/10/18 00:51:43;;;;;;;38.45;32.22;;;;;;;;;;5053394;28;20037;-59
2022/10/18 00:54:09;;;;;;;38.40;32.17;;;;;;;;;;5053992;28;20097;-60
2022/10/18 00:56:35;;;;;;;39.38;31.92;;;;;;;;;;5072042;28;20045;-60
2022/10/18 00:59:01;;;;;;;40.67;33.65;;;;;;;;;;5071863;28;20032;-58
2022/10/18 01:01:27;;;;;;;35.83;30.83;;;;;;;;;;5072096;28;20017;-60
2022/10/18 01:03:53;;;;;;;38.50;30.70;;;;;;;;;;5071883;28;20016;-59
2022/10/18 01:06:19;;;;;;;39.38;30.70;;;;;;;;;;5054326;28;20546;-59
2022/10/18 01:09:02;;;;;;;41.20;34.45;;;;;;;;;;5054357;28;20032;-58
2022/10/18 01:11:37;;;;;;;44.72;37.97;;;;;;;;;;5071923;28;20032;-59
2022/10/18 01:14:27;;;;;;;48.28;35.50;;;;;;;;;;5053720;28;20028;-59
2022/10/18 01:16:59;;;;;;;39.13;32.85;;;;;;;;;;5025201;28;20032;-60
2022/10/18 01:19:43;;;;;;;37.92;31.58;;;;;;;;;;5071514;28;20107;-58
2022/10/18 01:22:20;;;;;;;37.53;31.25;;;;;;;;;;5071641;28;20027;-60
2022/10/18 01:24:52;;;;;;;43.15;35.17;;;;;;;;;;5071521;28;20021;-59
2022/10/18 01:27:37;;;;;;;42.33;32.45;;;;;;;;;;5053452;28;20028;-59
2022/10/18 01:30:22;;;;;;;41.30;34.05;;;;;;;;;;5071637;28;20031;-60
2022/10/18 01:32:50;;;;;;;44.65;37.10;;;;;;;;;;5053561;28;20052;-60
2022/10/18 01:35:23;;;;;;;43.50;32.53;;;;;;;;;;5071414;28;20025;-60
2022/10/18 01:37:50;;;;;;;40.03;32.72;;;;;;;;;;5053159;28;20048;-57
2022/10/18 01:40:19;;;;;;;41.80;32.22;;;;;;;;;;5071597;28;20444;-59
2022/10/18 01:42:44;;;;;;;;;;;;;;;;;;5054212;28;20021;-61
2022/10/18 01:45:11;;;;;;;45.15;36.92;;;;;;;;;;5071244;28;19987;-57
2022/10/18 01:47:38;;;;;;;39.85;32.25;;;;;;;;;;5071457;28;20038;-59
2022/10/18 01:50:05;;;;;;;37.50;30.60;;;;;;;;;;5071649;28;20024;-58
2022/10/18 01:52:31;;;;;;;42.95;34.10;;;;;;;;;;5071401;28;20107;-55
2022/10/18 01:54:57;;;;;;;41.78;31.80;;;;;;;;;;5071222;28;20036;-60
2022/10/18 01:57:36;;;;;;;36.47;28.98;;;;;;;;;;5071127;28;20064;-61
2022/10/18 02:00:02;;;;;;;38.75;30.67;;;;;;;;;;5071137;28;20052;-60
2022/10/18 02:02:47;;;;;;;34.50;28.35;;;;;;;;;;5072159;28;20472;-59
2022/10/18 02:05:27;;;;;;;36.58;27.17;;;;;;;;;;5075090;28;20025;-60
2022/10/18 02:08:12;;;;;;;35.47;26.33;;;;;;;;;;5057292;28;20021;-59
2022/10/18 02:10:41;;;;;;;34.50;26.00;;;;;;;;;;5075037;28;20028;-59
2022/10/18 02:13:07;;;;;;;34.20;26.33;;;;;;;;;;5074939;28;20108;-58
2022/10/18 02:15:37;;;;;;;36.90;26.20;;;;;;;;;;5074928;28;20033;-60
2022/10/18 02:18:05;;;;;;;36.15;26.23;;;;;;;;;;5074837;28;20116;-58
2022/10/18 02:20:31;;;;;;;34.30;26.27;;;;;;;;;;5074943;28;20036;-57
2022/10/18 02:22:58;;;;;;;35.58;26.45;;;;;;;;;;5075000;28;20099;-59
2022/10/18 02:25:26;;;;;;;36.45;26.65;;;;;;;;;;5074737;28;20554;-60
2022/10/18 02:27:52;;;;;;;;;;;;;;;;;;5075201;28;20059;-59
2022/10/18 02:30:18;;;;;;;35.15;27.15;;;;;;;;;;5074897;28;19904;-60
2022/10/18 02:32:49;;;;;;;33.47;26.38;;;;;;;;;;5074506;28;20074;-57
2022/10/18 02:35:32;;;;;;;33.38;26.38;;;;;;;;;;5074561;28;20528;-58
2022/10/18 02:37:58;;;;;;;35.55;25.70;;;;;;;;;;5056148;28;20484;-60
2022/10/18 02:40:25;;;;;;;36.22;25.17;;;;;;;;;;5074665;28;20028;-56
2022/10/18 02:42:53;;;;;;;32.47;24.77;;;;;;;;;;5074622;28;20052;-60
2022/10/18 02:45:20;;;;;;;33.78;25.45;;;;;;;;;;5074179;28;20073;-60
2022/10/18 02:47:46;;;;;;;31.63;25.00;;;;;;;;;;5056579;28;20119;-57
2022/10/18 02:50:13;;;;;;;36.45;27.48;;;;;;;;;;5074361;28;20028;-57
2022/10/18 02:52:39;;;;;;;32.75;24.58;;;;;;;;;;5074233;28;20112;-59
2022/10/18 02:55:06;;;;;;;31.27;26.10;;;;;;;;;;5074264;28;20510;-58
2022/10/18 02:57:32;;;;;;;33.20;25.00;;;;;;;;;;5074497;28;20365;-54
2022/10/18 02:59:58;;;;;;;33.20;25.67;;;;;;;;;;5074146;28;20162;-57
2022/10/18 03:02:24;;;;;;;31.80;25.30;;;;;;;;;;5074691;28;20017;-59
2022/10/18 03:04:50;;;;;;;33.05;25.27;;;;;;;;;;5074085;28;20373;-56
2022/10/18 03:07:16;;;;;;;32.67;25.50;;;;;;;;;;5074418;28;20103;-57
2022/10/18 03:09:42;;;;;;;34.63;26.02;;;;;;;;;;5074420;28;20137;-56
2022/10/18 03:12:08;;;;;;;34.65;26.13;;;;;;;;;;5074204;28;20419;-53
2022/10/18 03:14:34;;;;;;;35.13;25.45;;;;;;;;;;5072589;28;20028;-60
2022/10/18 03:17:00;;;;;;;33.55;24.80;;;;;;;;;;5073712;28;20079;-59
2022/10/18 03:19:26;;;;;;;31.88;25.42;;;;;;;;;;5073742;28;20384;-59
2022/10/18 03:21:52;;;;;;;33.05;25.42;;;;;;;;;;5073870;28;20052;-56
2022/10/18 03:24:18;;;;;;;31.65;26.15;;;;;;;;;;5073524;28;20033;-58
2022/10/18 03:26:44;;;;;;;32.45;26.17;;;;;;;;;;5073611;28;20029;-55
2022/10/18 03:29:10;;;;;;;31.08;22.95;;;;;;;;;;5073682;28;20024;-59
2022/10/18 03:31:36;;;;;;;33.05;25.63;;;;;;;;;;5073596;28;20055;-56
2022/10/18 03:34:02;;;;;;;32.35;24.30;;;;;;;;;;5073359;28;20112;-58
2022/10/18 03:36:28;;;;;;;31.45;25.15;;;;;;;;;;5073464;28;20056;-60
2022/10/18 03:38:54;;;;;;;31.83;24.13;;;;;;;;;;5073286;28;20067;-60
2022/10/18 03:41:20;;;;;;;34.25;26.33;;;;;;;;;;5073417;28;20025;-58
2022/10/18 03:43:46;;;;;;;30.58;24.45;;;;;;;;;;5055301;28;20357;-59
2022/10/18 03:46:12;;;;;;;34.13;24.67;;;;;;;;;;5073238;28;20051;-60
2022/10/18 03:48:38;;;;;;;33.42;24.15;;;;;;;;;;5055640;28;20495;-58
2022/10/18 03:51:04;;;;;;;30.27;24.30;;;;;;;;;;5073249;28;20036;-60
2022/10/18 03:53:30;;;;;;;33.67;25.08;;;;;;;;;;5073008;28;20476;-59
2022/10/18 03:55:56;;;;;;;31.13;24.40;;;;;;;;;;5073149;28;20029;-57
2022/10/18 03:58:22;;;;;;;36.13;25.77;;;;;;;;;;5072881;28;20027;-59
2022/10/18 04:00:50;;;;;;;33.63;25.52;;;;;;;;;;5073044;28;20048;-60
2022/10/18 04:03:15;;;;;;;31.52;25.55;;;;;;;;;;5072625;28;20032;-60
2022/10/18 04:05:41;;;;;;;36.75;26.25;;;;;;;;;;5072988;28;20654;-60
2022/10/18 04:08:07;;;;;;;34.85;27.27;;;;;;;;;;5072729;28;20041;-58
2022/10/18 04:10:33;;;;;;;34.80;26.38;;;;;;;;;;5072698;28;20488;-59
2022/10/18 04:12:59;;;;;;;37.42;28.35;;;;;;;;;;5054661;28;20027;-59
2022/10/18 04:15:25;;;;;;;37.35;29.17;;;;;;;;;;5072345;28;20395;-60
2022/10/18 04:17:51;;;;;;;34.72;26.70;;;;;;;;;;5072621;28;20077;-60
2022/10/18 04:20:17;;;;;;;35.55;26.33;;;;;;;;;;5054687;28;20058;-59
2022/10/18 04:22:43;;;;;;;38.55;27.92;;;;;;;;;;5072623;28;20743;-58
2022/10/18 04:25:09;;;;;;;33.85;25.65;;;;;;;;;;5071892;28;20062;-55
2022/10/18 04:27:36;;;;;;;34.92;27.33;;;;;;;;;;5072408;28;20103;-58
2022/10/18 04:30:02;;;;;;;31.70;25.88;;;;;;;;;;5072450;28;20163;-59
2022/10/18 04:32:28;;;;;;;36.33;26.42;;;;;;;;;;5054237;28;20040;-60
2022/10/18 04:34:54;;;;;;;34.90;25.60;;;;;;;;;;5072031;28;20358;-57
2022/10/18 04:37:20;;;;;;;32.85;25.75;;;;;;;;;;5054245;28;20115;-57
2022/10/18 04:39:47;;;;;;;33.05;26.67;;;;;;;;;;5045711;22;20092;-66
2022/10/18 04:42:13;;;;;;;36.55;28.17;;;;;;;;;;5031198;28;20040;-64
2022/10/18 04:44:39;;;;;;;35.38;27.95;;;;;;;;;;5013344;28;20017;-64
2022/10/18 04:47:05;;;;;;;34.75;26.48;;;;;;;;;;5031159;28;20021;-62
2022/10/18 04:49:31;;;;;;;34.13;26.98;;;;;;;;;;5031251;28;20033;-63
2022/10/18 04:51:57;;;;;;;34.20;27.38;;;;;;;;;;5031161;28;20112;-62
2022/10/18 04:54:23;;;;;;;35.65;26.77;;;;;;;;;;5013166;28;20033;-64
2022/10/18 04:56:49;;;;;;;34.83;27.27;;;;;;;;;;5030879;28;20084;-64
2022/10/18 04:59:15;;;;;;;33.55;27.10;;;;;;;;;;5030697;28;20436;-64
2022/10/18 05:01:41;;;;;;;38.33;28.80;;;;;;;;;;5013224;28;20030;-62
2022/10/18 05:04:07;;;;;;;33.95;27.30;;;;;;;;;;5030500;28;20036;-64
2022/10/18 05:06:33;;;;;;;43.47;28.00;;;;;;;;;;5030674;28;20117;-64
2022/10/18 05:08:59;;;;;;;33.60;27.05;;;;;;;;;;5030589;28;20049;-61
2022/10/18 05:11:25;;;;;;;37.60;28.13;;;;;;;;;;5030876;28;20064;-62
2022/10/18 05:13:51;;;;;;;35.45;28.25;;;;;;;;;;5030553;28;20029;-63
2022/10/18 05:16:17;;;;;;;35.10;27.48;;;;;;;;;;5030813;28;20444;-64
2022/10/18 05:18:43;;;;;;;35.00;27.55;;;;;;;;;;5012518;28;20048;-63
2022/10/18 05:21:11;;;;;;;34.25;26.73;;;;;;;;;;5030495;28;20084;-64
2022/10/18 05:23:37;;;;;;;34.70;27.52;;;;;;;;;;5030182;28;20053;-62
2022/10/18 05:26:03;;;;;;;36.22;28.58;;;;;;;;;;5012398;28;20049;-63
2022/10/18 05:28:30;;;;;;;36.28;28.00;;;;;;;;;;5030286;28;20075;-60
2022/10/18 05:30:59;;;;;;;34.45;28.08;;;;;;;;;;5029555;28;20018;-63
2022/10/18 05:33:25;;;;;;;39.45;30.52;;;;;;;;;;5012153;28;20440;-64
2022/10/18 05:35:51;;;;;;;39.85;29.10;;;;;;;;;;5030276;28;20075;-62
2022/10/18 05:38:17;;;;;;;38.83;30.25;;;;;;;;;;5034359;28;20552;-62
2022/10/18 05:40:43;;;;;;;37.72;29.52;;;;;;;;;;5037152;28;20033;-63
2022/10/18 05:43:09;;;;;;;39.72;30.63;;;;;;;;;;5036620;28;20017;-62
2022/10/18 05:45:35;;;;;;;38.03;30.33;;;;;;;;;;5019502;28;20029;-62
2022/10/18 05:48:01;;;;;;;42.55;32.17;;;;;;;;;;5021380;28;20068;-63
2022/10/18 05:50:27;;;;;;;40.70;30.35;;;;;;;;;;5020260;28;20485;-60
2022/10/18 05:52:56;;;;;;;41.17;29.75;;;;;;;;;;5037969;28;20029;-63
2022/10/18 05:55:23;;;;;;;38.90;31.50;;;;;;;;;;5036496;28;20028;-64
2022/10/18 05:57:50;;;;;;;38.05;30.88;;;;;;;;;;5018949;28;20021;-59
2022/10/18 06:00:16;;;;;;;38.55;29.20;;;;;;;;;;5036388;28;20390;-61
2022/10/18 06:02:42;;;;;;;38.80;29.25;;;;;;;;;;5036527;28;20025;-62
2022/10/18 06:05:08;;;;;;;42.75;30.52;;;;;;;;;;5036315;28;20036;-62
2022/10/18 06:07:34;;;;;;;37.58;28.25;;;;;;;;;;5019001;28;20686;-63
2022/10/18 06:10:00;;;;;;;37.20;30.45;;;;;;;;;;5036071;28;20025;-63
2022/10/18 06:12:26;;;;;;;37.40;30.45;;;;;;;;;;5036697;28;20025;-63
2022/10/18 06:14:52;;;;;;;43.67;30.55;;;;;;;;;;5036597;28;20104;-64
2022/10/18 06:17:18;;;;;;;41.03;30.55;;;;;;;;;;5036203;28;20021;-61
2022/10/18 06:19:44;;;;;;;48.55;32.65;;;;;;;;;;5036275;28;20103;-62
2022/10/18 06:22:10;;;;;;;42.10;32.08;;;;;;;;;;5036605;28;20165;-62
2022/10/18 06:24:36;;;;;;;36.60;28.45;;;;;;;;;;5036236;28;20029;-63
2022/10/18 06:27:08;;;;;;;39.75;30.75;;;;;;;;;;5036092;28;20025;-63
2022/10/18 06:29:35;;;;;;;40.03;31.15;;;;;;;;;;5018612;28;20036;-64
2022/10/18 06:32:01;;;;;;;39.65;30.38;;;;;;;;;;5036234;28;20041;-63
2022/10/18 06:34:27;;;;;;;40.70;30.05;;;;;;;;;;5036606;28;20036;-63
2022/10/18 06:36:53;;;;;;;41.22;32.00;;;;;;;;;;5036494;28;20029;-62
2022/10/18 06:39:19;;;;;;;43.70;31.60;;;;;;;;;;5036079;28;20040;-62
2022/10/18 06:41:45;;;;;;;39.78;30.80;;;;;;;;;;5036232;28;20021;-63
2022/10/18 06:44:14;;;;;;;44.92;30.70;;;;;;;;;;5035970;28;20362;-63
2022/10/18 06:46:40;;;;;;;40.63;31.63;;;;;;;;;;5036197;28;20477;-62
2022/10/18 06:49:06;;;;;;;44.20;30.80;;;;;;;;;;5034667;28;20051;-62
2022/10/18 06:51:32;;;;;;;40.03;30.55;;;;;;;;;;5033085;28;20401;-63
2022/10/18 06:53:58;;;;;;;44.80;33.30;;;;;;;;;;5032553;28;20026;-61
2022/10/18 06:56:24;;;;;;;43.80;33.90;;;;;;;;;;5032796;28;20036;-63
2022/10/18 06:58:50;;;;;;;48.65;33.22;;;;;;;;;;5032803;28;20029;-63
2022/10/18 07:01:17;;;;;;;49.90;35.38;;;;;;;;;;5033276;28;20080;-61
2022/10/18 07:03:44;;;;;;;58.20;37.42;;;;;;;;;;5032601;28;20026;-64
2022/10/18 07:06:12;;;;;;;51.08;36.30;;;;;;;;;;5032644;28;20036;-64
2022/10/18 07:08:38;;;;;;;47.72;35.30;;;;;;;;;;5032613;28;20018;-64
2022/10/18 07:11:05;;;;;;;51.55;35.83;;;;;;;;;;5032880;28;20025;-64
2022/10/18 07:13:32;;;;;;;48.60;35.25;;;;;;;;;;5032096;28;20028;-62
2022/10/18 07:16:01;;;;;;;46.55;35.55;;;;;;;;;;5032584;28;20101;-62
2022/10/18 07:18:27;;;;;;;55.03;38.42;;;;;;;;;;5032429;28;20037;-64
2022/10/18 07:20:53;;;;;;;49.40;35.58;;;;;;;;;;5014643;28;20026;-62
2022/10/18 07:23:22;;;;;;;49.00;36.95;;;;;;;;;;5032084;28;20025;-63
2022/10/18 07:25:48;;;;;;;48.53;35.03;;;;;;;;;;5032349;28;20025;-60
2022/10/18 07:28:14;;;;;;;48.30;36.28;;;;;;;;;;5032465;28;20047;-59
2022/10/18 07:30:40;;;;;;;50.88;36.50;;;;;;;;;;5032231;28;20080;-61
2022/10/18 07:33:06;;;;;;;54.28;38.08;;;;;;;;;;5032060;28;20029;-62
2022/10/18 07:35:32;;;;;;;52.10;37.05;;;;;;;;;;5032486;28;20489;-59
2022/10/18 07:37:58;;;;;;;52.13;38.80;;;;;;;;;;5014296;28;20030;-59
2022/10/18 07:40:24;;;;;;;58.10;38.53;;;;;;;;;;5014222;28;20033;-59
2022/10/18 07:42:50;;;;;;;55.10;37.20;;;;;;;;;;5032005;28;20028;-61
2022/10/18 07:45:16;;;;;;;54.35;36.78;;;;;;;;;;5031402;28;20436;-59
2022/10/18 07:47:42;;;;;;;57.38;36.60;;;;;;;;;;5031937;28;20425;-58
2022/10/18 07:50:08;;;;;;;53.13;36.30;;;;;;;;;;5031784;28;20026;-58
2022/10/18 07:52:34;;;;;;;56.58;36.10;;;;;;;;;;5031757;28;20025;-62
2022/10/18 07:55:00;;;;;;;56.90;38.35;;;;;;;;;;5031642;28;20028;-59
2022/10/18 07:57:26;;;;;;;49.78;33.50;;;;;;;;;;5031658;28;20052;-61
2022/10/18 07:59:55;;;;;;;52.25;35.30;;;;;;;;;;5016174;28;20115;-61
2022/10/18 08:02:22;;;;;;;53.75;36.85;;;;;;;;;;5011998;28;20022;-62
2022/10/18 08:04:48;;;;;;;53.55;35.75;;;;;;;;;;5011587;28;20036;-56
2022/10/18 08:07:14;;;;;;;50.20;32.53;;;;;;;;;;5011817;28;20053;-61
2022/10/18 08:09:40;;;;;;;52.47;34.58;;;;;;;;;;5011756;28;20219;-58
2022/10/18 08:12:07;;;;;;;53.13;35.83;;;;;;;;;;5015558;28;20068;-63
2022/10/18 08:14:33;;;;;;;52.05;34.28;;;;;;;;;;5022816;28;20029;-61
2022/10/18 08:16:59;;;;;;;53.33;36.75;;;;;;;;;;5023027;28;20057;-61
2022/10/18 08:19:25;;;;;;;53.33;34.92;;;;;;;;;;5023419;28;20022;-62
2022/10/18 08:21:51;;;;;;;50.60;34.95;;;;;;;;;;5002989;28;20030;-61
2022/10/18 08:24:17;;;;;;;52.65;34.83;;;;;;;;;;5013954;28;20022;-61
2022/10/18 08:26:43;;;;;;;47.20;33.00;;;;;;;;;;5011607;28;20030;-61
2022/10/18 08:29:10;;;;;;;48.38;32.63;;;;;;;;;;5011573;28;20022;-61
2022/10/18 08:31:36;;;;;;;44.90;30.98;;;;;;;;;;5016200;28;20036;-58
2022/10/18 08:34:02;;;;;;;51.63;33.85;;;;;;;;;;5030568;28;20426;-59
2022/10/18 08:36:28;;;;;;;49.33;32.95;;;;;;;;;;5031205;28;20052;-59
2022/10/18 08:38:54;;;;;;;42.05;31.73;;;;;;;;;;5030786;28;20034;-61
2022/10/18 08:41:29;;;;;;;49.72;33.35;;;;;;;;;;5013402;28;20022;-62
2022/10/18 08:44:02;;;;;;;48.88;33.55;;;;;;;;;;5031243;28;20018;-63
2022/10/18 08:46:28;;;;;;;46.28;30.27;;;;;;;;;;5030952;28;20107;-61
2022/10/18 08:48:55;;;;;;;44.72;30.45;;;;;;;;;;5031274;28;20032;-60
2022/10/18 08:51:21;;;;;;;47.78;30.73;;;;;;;;;;5031399;28;20033;-60
2022/10/18 08:54:02;;;;;;;43.03;29.88;;;;;;;;;;5031091;28;20075;-61
2022/10/18 08:56:28;;;;;;;49.17;31.60;;;;;;;;;;5031485;28;20049;-62
2022/10/18 08:58:54;;;;;;;42.70;30.15;;;;;;;;;;5030213;28;20021;-62
2022/10/18 09:01:20;;;;;;;48.47;30.88;;;;;;;;;;5030627;28;20452;-63
2022/10/18 09:03:46;;;;;;;46.53;32.00;;;;;;;;;;5030685;28;20026;-62
2022/10/18 09:06:35;;;;;;;50.75;30.88;;;;;;;;;;5030921;28;20492;-61
2022/10/18 09:09:08;;;;;;;43.10;30.45;;;;;;;;;;4985684;28;20136;-61
2022/10/18 09:11:40;;;;;;;44.28;27.95;;;;;;;;;;5013253;28;20033;-63
2022/10/18 09:14:25;;;;;;;41.20;26.95;;;;;;;;;;5012985;28;20481;-61
2022/10/18 09:16:51;;;;;;;44.72;28.98;;;;;;;;;;5031445;28;20029;-57
2022/10/18 09:19:30;;;;;;;46.20;28.55;;;;;;;;;;5030976;28;20029;-62
2022/10/18 09:22:06;;;;;;;40.75;26.88;;;;;;;;;;5030788;28;20025;-62
2022/10/18 09:24:35;;;;;;;44.33;27.10;;;;;;;;;;5030899;28;20025;-62
2022/10/18 09:27:04;;;;;;;40.53;27.20;;;;;;;;;;5030884;28;20026;-63
2022/10/18 09:29:40;;;;;;;42.67;27.98;;;;;;;;;;5030432;28;20469;-62
2022/10/18 09:32:22;;;;;;;43.85;29.02;;;;;;;;;;5012895;28;20045;-60
2022/10/18 09:35:17;;;;;;;39.72;25.85;;;;;;;;;;5030056;28;20056;-63
2022/10/18 09:37:44;;;;;;;34.55;23.83;;;;;;;;;;5017303;28;20042;-62
2022/10/18 09:40:22;;;;;;;43.08;27.02;;;;;;;;;;5029885;28;20083;-62
2022/10/18 09:42:54;;;;;;;37.58;23.73;;;;;;;;;;5030279;28;20530;-63
2022/10/18 09:45:39;;;;;;;38.22;23.77;;;;;;;;;;5030114;28;20030;-62
2022/10/18 09:48:17;;;;;;;37.25;24.08;;;;;;;;;;5030021;28;20071;-60
2022/10/18 09:50:45;;;;;;;36.25;24.65;;;;;;;;;;5030133;28;20091;-61
2022/10/18 09:53:27;;;;;;;39.03;25.70;;;;;;;;;;5030058;28;20048;-61
2022/10/18 09:56:14;;;;;;;39.25;24.00;;;;;;;;;;5029890;28;20116;-60
2022/10/18 09:58:41;;;;;;;35.25;23.70;;;;;;;;;;5024911;28;20022;-61
2022/10/18 10:01:07;;;;;;;34.40;22.83;;;;;;;;;;5010249;28;20018;-61
2022/10/18 10:03:33;;;;;;;35.25;22.75;;;;;;;;;;5010000;28;20053;-63
2022/10/18 10:06:23;;;;;;;37.58;22.08;;;;;;;;;;5010095;28;20022;-60
2022/10/18 10:08:53;;;;;;;35.28;22.33;;;;;;;;;;5010066;28;20113;-62
2022/10/18 10:11:30;;;;;;;32.30;21.10;;;;;;;;;;4992325;28;20024;-61
2022/10/18 10:13:57;;;;;;;32.40;21.88;;;;;;;;;;5009947;28;20026;-61
2022/10/18 10:16:23;;;;;;;36.45;20.60;;;;;;;;;;5009954;28;20022;-59
2022/10/18 10:18:53;;;;;;;33.88;20.20;;;;;;;;;;5010080;28;20025;-63
2022/10/18 10:21:20;;;;;;;29.55;19.38;;;;;;;;;;5010355;28;20508;-63
2022/10/18 10:23:46;;;;;;;34.35;21.63;;;;;;;;;;5010917;28;20065;-62
2022/10/18 10:26:30;;;;;;;32.28;18.73;;;;;;;;;;5014013;28;20378;-61
2022/10/18 10:28:56;;;;;;;30.38;19.67;;;;;;;;;;4996246;28;20445;-63
2022/10/18 10:31:25;;;;;;;29.08;19.65;;;;;;;;;;5013556;28;20018;-61
2022/10/18 10:33:59;;;;;;;28.98;18.52;;;;;;;;;;5013453;28;20049;-62
2022/10/18 10:36:25;;;;;;;32.80;20.27;;;;;;;;;;5013465;28;20025;-61
2022/10/18 10:39:03;;;;;;;31.42;20.65;;;;;;;;;;5045196;22;20041;-61
2022/10/18 10:41:29;;;;;;;31.85;18.83;;;;;;;;;;5054473;28;20477;-59
2022/10/18 10:43:55;;;;;;;30.35;17.98;;;;;;;;;;5054000;28;20029;-62
2022/10/18 10:46:22;;;;;;;29.90;18.10;;;;;;;;;;5052875;28;20074;-62
2022/10/18 10:48:59;;;;;;;28.13;18.33;;;;;;;;;;5053606;28;20082;-64
2022/10/18 10:51:37;;;;;;;28.60;18.15;;;;;;;;;;5053253;28;20017;-62
2022/10/18 10:54:11;;;;;;;26.55;16.75;;;;;;;;;;5053875;28;20032;-62
2022/10/18 10:56:49;;;;;;;26.35;15.70;;;;;;;;;;5053580;28;20123;-61
2022/10/18 10:59:17;;;;;;;26.20;15.98;;;;;;;;;;5052912;28;20041;-63
2022/10/18 11:01:44;;;;;;;27.85;15.20;;;;;;;;;;5052640;28;20029;-63
2022/10/18 11:04:24;;;;;;;29.30;16.50;;;;;;;;;;5053953;28;20071;-63
2022/10/18 11:06:59;;;;;;;26.33;16.23;;;;;;;;;;5052442;28;20459;-63
2022/10/18 11:09:38;;;;;;;27.30;17.40;;;;;;;;;;5052550;28;20096;-62
2022/10/18 11:12:11;;;;;;;30.15;17.33;;;;;;;;;;5054045;28;20370;-61
2022/10/18 11:14:40;;;;;;;29.67;17.27;;;;;;;;;;5053543;28;20107;-62
2022/10/18 11:17:12;;;;;;;30.60;19.00;;;;;;;;;;5052845;28;20115;-62
2022/10/18 11:19:39;;;;;;;27.85;17.30;;;;;;;;;;5052476;28;20057;-62
2022/10/18 11:22:06;;;;;;;24.52;17.60;;;;;;;;;;5054210;28;20384;-63
2022/10/18 11:24:34;;;;;;;28.10;18.75;;;;;;;;;;5054084;28;20025;-63
2022/10/18 11:27:11;;;;;;;25.20;18.37;;;;;;;;;;5054190;28;20544;-61
2022/10/18 11:29:46;;;;;;;27.00;19.85;;;;;;;;;;5053310;28;20649;-62
2022/10/18 11:32:31;;;;;;;27.08;17.15;;;;;;;;;;5052901;28;20460;-64
2022/10/18 11:35:00;;;;;;;24.30;16.30;;;;;;;;;;5052895;28;20052;-62
2022/10/18 11:37:26;;;;;;;26.23;17.15;;;;;;;;;;5053888;28;20024;-62
2022/10/18 11:39:58;;;;;;;24.17;17.08;;;;;;;;;;5052248;28;20040;-61
2022/10/18 11:42:39;;;;;;;24.95;15.52;;;;;;;;;;5054184;28;20021;-62
2022/10/18 11:45:05;;;;;;;23.15;15.32;;;;;;;;;;5052107;28;20061;-62
2022/10/18 11:47:39;;;;;;;22.20;15.18;;;;;;;;;;5053916;28;20036;-62
2022/10/18 11:50:12;;;;;;;22.48;15.35;;;;;;;;;;5053642;28;20539;-61
2022/10/18 11:52:38;;;;;;;23.08;13.98;;;;;;;;;;5055033;28;20040;-60
2022/10/18 11:55:16;;;;;;;23.75;14.30;;;;;;;;;;5052309;28;20067;-63
2022/10/18 11:58:01;;;;;;;24.83;14.05;;;;;;;;;;5053476;28;20025;-63
2022/10/18 12:00:45;;;;;;;23.58;15.20;;;;;;;;;;5053195;28;20025;-62
2022/10/18 12:03:30;;;;;;;24.35;15.02;;;;;;;;;;5052887;28;20056;-62
2022/10/18 12:05:57;;;;;;;22.73;14.98;;;;;;;;;;5052669;28;20520;-64
2022/10/18 12:08:23;;;;;;;27.15;16.17;;;;;;;;;;5054300;28;20099;-56
2022/10/18 12:10:51;;;;;;;24.15;15.10;;;;;;;;;;5053697;28;20104;-62
2022/10/18 12:13:27;;;;;;;27.13;16.60;;;;;;;;;;5053293;28;20025;-61
2022/10/18 12:15:53;;;;;;;24.90;14.88;;;;;;;;;;5053224;28;20531;-61
2022/10/18 12:18:21;;;;;;;21.23;14.40;;;;;;;;;;5052190;28;20033;-63
2022/10/18 12:20:49;;;;;;;25.08;15.02;;;;;;;;;;5052161;28;20400;-61
2022/10/18 12:23:17;;;;;;;23.30;14.23;;;;;;;;;;5052335;28;20017;-62
2022/10/18 12:25:45;;;;;;;24.23;15.05;;;;;;;;;;5052416;28;20128;-62
2022/10/18 12:28:29;;;;;;;20.80;13.88;;;;;;;;;;5053583;28;20033;-59
2022/10/18 12:31:02;;;;;;;23.08;14.02;;;;;;;;;;5052039;28;20104;-62
2022/10/18 12:33:30;;;;;;;22.88;13.30;;;;;;;;;;5051512;28;20033;-61
2022/10/18 12:35:56;;;;;;;23.13;14.32;;;;;;;;;;5053242;28;20029;-62
2022/10/18 12:38:27;;;;;;;19.33;12.80;;;;;;;;;;5052708;28;20035;-61
2022/10/18 12:40:54;;;;;;;21.75;13.32;;;;;;;;;;5052871;28;20040;-62
2022/10/18 12:43:25;;;;;;;20.48;13.18;;;;;;;;;;5052533;28;20024;-62
2022/10/18 12:45:53;;;;;;;18.52;13.02;;;;;;;;;;5051893;28;20116;-63
2022/10/18 12:48:28;;;;;;;26.60;13.25;;;;;;;;;;5053092;28;20473;-62
2022/10/18 12:50:58;;;;;;;20.83;13.05;;;;;;;;;;5052460;28;20033;-63
2022/10/18 12:53:25;;;;;;;22.65;12.52;;;;;;;;;;5052686;28;20075;-62
2022/10/18 12:55:52;;;;;;;20.48;12.82;;;;;;;;;;5052926;28;20060;-60
2022/10/18 12:58:29;;;;;;;20.02;12.93;;;;;;;;;;5052791;28;20421;-63
2022/10/18 13:01:01;;;;;;;20.55;12.43;;;;;;;;;;5053002;28;20104;-62
2022/10/18 13:03:29;;;;;;;21.48;12.90;;;;;;;;;;5051035;28;20070;-62
2022/10/18 13:05:58;;;;;;;22.30;12.90;;;;;;;;;;5052545;28;20325;-61
2022/10/18 13:08:27;;;;;;;19.88;12.15;;;;;;;;;;5052261;28;20025;-62
2022/10/18 13:11:13;;;;;;;21.05;12.15;;;;;;;;;;5050884;28;20079;-61
2022/10/18 13:13:53;;;;;;;20.52;13.45;;;;;;;;;;5051926;28;20033;-61
2022/10/18 13:16:22;;;;;;;21.45;12.00;;;;;;;;;;5052850;28;20028;-63
2022/10/18 13:18:54;;;;;;;17.80;12.00;;;;;;;;;;5061692;28;20036;-63
2022/10/18 13:21:23;;;;;;;18.98;12.18;;;;;;;;;;5056981;28;20109;-62
2022/10/18 13:23:59;;;;;;;19.55;11.93;;;;;;;;;;5051081;28;20017;-61
2022/10/18 13:26:43;;;;;;;18.70;12.27;;;;;;;;;;5050587;28;20025;-61
2022/10/18 13:29:12;;;;;;;19.08;12.45;;;;;;;;;;5051856;28;20071;-61
2022/10/18 13:31:58;;;;;;;23.15;13.25;;;;;;;;;;5052281;28;20024;-63
2022/10/18 13:34:26;;;;;;;18.02;11.52;;;;;;;;;;5052368;28;20044;-59
2022/10/18 13:36:59;;;;;;;20.77;12.13;;;;;;;;;;5051737;28;20036;-61
2022/10/18 13:39:26;;;;;;;17.40;12.07;;;;;;;;;;5049995;28;20497;-60
2022/10/18 13:41:55;;;;;;;18.17;11.30;;;;;;;;;;5051724;28;20029;-61
2022/10/18 13:44:38;;;;;;;23.42;11.70;;;;;;;;;;5051373;28;20404;-62
2022/10/18 13:47:05;;;;;;;19.67;12.55;;;;;;;;;;5051184;28;20021;-61
2022/10/18 13:49:50;;;;;;;17.80;12.38;;;;;;;;;;5051233;28;20033;-65
2022/10/18 13:52:28;;;;;;;19.58;12.05;;;;;;;;;;5052478;28;20549;-65
2022/10/18 13:54:54;;;;;;;16.05;11.82;;;;;;;;;;5051086;28;20036;-66
2022/10/18 13:57:20;;;;;;;21.23;13.40;;;;;;;;;;5052479;28;20353;-66
2022/10/18 13:59:54;;;;;;;21.92;12.93;;;;;;;;;;5055243;28;20068;-65
2022/10/18 14:02:20;;;;;;;17.10;12.27;;;;;;;;;;5056747;28;20366;-65
2022/10/18 14:04:54;;;;;;;17.23;11.45;;;;;;;;;;5054554;28;20025;-67
2022/10/18 14:07:21;;;;;;;19.05;12.48;;;;;;;;;;5055204;28;20025;-66
2022/10/18 14:09:50;;;;;;;18.10;12.40;;;;;;;;;;5056544;28;20174;-66
2022/10/18 14:12:42;;;;;;;21.20;13.10;;;;;;;;;;5056619;28;20028;-66
2022/10/18 14:15:20;;;;;;;18.48;12.10;;;;;;;;;;5032092;28;20048;-69
2022/10/18 14:17:46;;;;;;;19.38;12.30;;;;;;;;;;5055123;28;20439;-68
2022/10/18 14:20:13;;;;;;;18.42;12.07;;;;;;;;;;5054983;28;20033;-67
2022/10/18 14:22:54;;;;;;;18.20;12.50;;;;;;;;;;5055559;28;20032;-60
2022/10/18 14:25:27;;;;;;;18.00;11.43;;;;;;;;;;5053082;28;20033;-52
2022/10/18 14:28:05;;;;;;;16.77;11.77;;;;;;;;;;5053190;28;20508;-61
2022/10/18 14:30:32;;;;;;;17.73;11.32;;;;;;;;;;4741916;28;10000404;-58
2022/10/18 14:32:58;;;;;;;17.95;11.70;;;;;;;;;;5039772;28;20234;-59